createdAt,value
2018-11-22T00:00:28.172Z,936.27
2018-11-22T00:01:29.674Z,936.26
2018-11-22T00:02:30.296Z,936.2
2018-11-22T00:03:31.357Z,936.2
2018-11-22T00:04:32.627Z,936.26
2018-11-22T00:05:32.964Z,936.3
2018-11-22T00:06:33.300Z,936.28
2018-11-22T00:07:34.081Z,936.35
2018-11-22T00:08:35.213Z,936.33
2018-11-22T00:09:35.719Z,936.35
2018-11-22T00:10:37.056Z,936.39
2018-11-22T00:11:37.857Z,936.37
2018-11-22T00:12:38.634Z,936.36
2018-11-22T00:13:39.416Z,936.41
2018-11-22T00:14:40.474Z,936.43
2018-11-22T00:15:41.368Z,936.43
2018-11-22T00:16:42.261Z,936.45
2018-11-22T00:17:43.633Z,936.46
2018-11-22T00:18:44.483Z,936.46
2018-11-22T00:19:45.261Z,936.46
2018-11-22T00:20:46.322Z,936.51
2018-11-22T00:21:47.103Z,936.49
2018-11-22T00:22:47.885Z,936.53
2018-11-22T00:23:48.667Z,936.51
2018-11-22T00:24:49.449Z,936.5
2018-11-22T00:25:49.785Z,936.51
2018-11-22T00:26:50.568Z,936.5
2018-11-22T00:27:50.901Z,936.52
2018-11-22T00:28:51.736Z,936.54
2018-11-22T00:29:52.349Z,936.54
2018-11-22T00:30:52.857Z,936.52
2018-11-22T00:31:53.364Z,936.49
2018-11-22T00:32:53.896Z,936.52
2018-11-22T00:33:54.679Z,936.51
2018-11-22T00:34:55.291Z,936.56
2018-11-22T00:35:56.351Z,936.56
2018-11-22T00:36:56.857Z,936.59
2018-11-22T00:37:57.638Z,936.61
2018-11-22T00:38:58.763Z,936.6
2018-11-22T00:39:59.379Z,936.61
2018-11-22T00:41:00.716Z,936.62
2018-11-22T00:42:01.217Z,936.62
2018-11-22T00:43:01.832Z,936.64
2018-11-22T00:44:02.168Z,936.66
2018-11-22T00:45:03.506Z,936.67
2018-11-22T00:46:04.570Z,936.7
2018-11-22T00:47:05.351Z,936.63
2018-11-22T00:48:05.967Z,936.64
2018-11-22T00:49:06.518Z,936.64
2018-11-22T00:50:07.021Z,936.64
2018-11-22T00:51:08.363Z,936.63
2018-11-22T00:52:09.422Z,936.61
2018-11-22T00:53:10.204Z,936.66
2018-11-22T00:54:11.265Z,936.67
2018-11-22T00:55:12.045Z,936.72
2018-11-22T00:56:12.560Z,936.72
2018-11-22T00:57:13.897Z,936.73
2018-11-22T00:58:14.235Z,936.72
2018-11-22T00:59:15.504Z,936.77
2018-11-22T01:00:16.115Z,936.77
2018-11-22T01:01:16.454Z,936.78
2018-11-22T01:02:17.519Z,936.76
2018-11-22T01:03:18.129Z,936.77
2018-11-22T01:04:19.187Z,936.79
2018-11-22T01:05:19.688Z,936.8
2018-11-22T01:06:20.917Z,936.82
2018-11-22T01:07:21.699Z,936.77
2018-11-22T01:08:22.475Z,936.82
2018-11-22T01:09:23.299Z,936.78
2018-11-22T01:10:24.804Z,936.79
2018-11-22T01:11:25.306Z,936.82
2018-11-22T01:12:25.642Z,936.78
2018-11-22T01:13:26.423Z,936.82
2018-11-22T01:14:26.929Z,936.83
2018-11-22T01:15:27.431Z,936.85
2018-11-22T01:16:28.531Z,936.88
2018-11-22T01:17:29.313Z,936.86
2018-11-22T01:18:30.372Z,936.89
2018-11-22T01:19:31.207Z,936.88
2018-11-22T01:20:31.988Z,936.91
2018-11-22T01:21:32.328Z,936.93
2018-11-22T01:22:33.391Z,936.93
2018-11-22T01:23:33.894Z,936.97
2018-11-22T01:24:35.229Z,936.93
2018-11-22T01:25:36.288Z,936.94
2018-11-22T01:26:37.348Z,936.95
2018-11-22T01:27:38.406Z,936.98
2018-11-22T01:28:39.020Z,936.96
2018-11-22T01:29:39.871Z,936.94
2018-11-22T01:30:40.373Z,936.93
2018-11-22T01:31:41.542Z,936.9
2018-11-22T01:32:42.047Z,936.91
2018-11-22T01:33:42.827Z,936.89
2018-11-22T01:34:43.443Z,936.89
2018-11-22T07:16:29.134Z,937.43
2018-11-22T07:17:30.222Z,937.46
2018-11-22T07:18:30.855Z,937.44
2018-11-22T07:19:31.978Z,937.46
2018-11-22T07:20:32.495Z,937.49
2018-11-22T07:21:34.018Z,937.48
2018-11-22T07:22:35.094Z,937.46
2018-11-22T07:23:36.181Z,937.48
2018-11-22T07:24:37.268Z,937.51
2018-11-22T07:25:38.083Z,937.53
2018-11-22T07:26:39.039Z,937.49
2018-11-22T07:27:39.836Z,937.49
2018-11-22T07:28:40.634Z,937.52
2018-11-22T07:29:41.433Z,937.56
2018-11-22T07:30:43.084Z,937.57
2018-11-22T07:31:43.541Z,937.57
2018-11-22T07:32:44.970Z,937.56
2018-11-22T07:33:45.945Z,937.54
2018-11-22T07:34:46.912Z,937.57
2018-11-22T07:35:47.827Z,937.68
2018-11-22T07:36:48.269Z,937.65
2018-11-22T07:37:49.066Z,937.65
2018-11-22T07:38:50.143Z,937.67
2018-11-22T07:39:50.944Z,937.67
2018-11-22T07:40:51.469Z,937.65
2018-11-22T07:41:52.272Z,937.65
2018-11-22T07:42:53.359Z,937.69
2018-11-22T07:43:54.430Z,937.72
2018-11-22T07:44:55.233Z,937.66
2018-11-22T07:45:56.411Z,937.75
2018-11-22T07:46:57.450Z,937.76
2018-11-22T07:47:58.228Z,937.76
2018-11-22T07:48:59.752Z,937.78
2018-11-22T07:50:00.559Z,937.74
2018-11-22T07:51:01.190Z,937.76
2018-11-22T07:52:01.831Z,937.77
2018-11-22T07:53:02.188Z,937.74
2018-11-22T07:54:02.942Z,937.73
2018-11-22T07:55:03.743Z,937.75
2018-11-22T07:56:04.381Z,937.7
2018-11-22T07:57:05.061Z,937.73
2018-11-22T07:58:06.311Z,937.77
2018-11-22T07:59:07.667Z,937.71
2018-11-22T08:00:08.471Z,937.75
2018-11-22T08:01:09.828Z,937.72
2018-11-22T08:02:10.913Z,937.71
2018-11-22T08:03:11.992Z,937.73
2018-11-22T08:04:13.089Z,937.71
2018-11-22T08:05:13.448Z,937.71
2018-11-22T08:06:14.533Z,937.72
2018-11-22T08:07:14.943Z,937.75
2018-11-22T08:08:16.135Z,937.67
2018-11-22T08:09:16.937Z,937.72
2018-11-22T08:10:17.794Z,937.71
2018-11-22T08:11:18.598Z,937.74
2018-11-22T08:12:26.484Z,937.71
2018-11-22T08:12:31.652Z,937.69
2018-11-22T08:13:32.027Z,937.72
2018-11-22T08:14:33.111Z,937.75
2018-11-22T08:15:33.914Z,937.72
2018-11-22T08:16:35.272Z,937.72
2018-11-22T08:17:36.349Z,937.76
2018-11-22T08:18:37.154Z,937.7
2018-11-22T08:19:37.514Z,937.71
2018-11-22T08:20:38.618Z,937.69
2018-11-22T08:21:38.986Z,937.76
2018-11-22T08:22:39.507Z,937.71
2018-11-22T08:23:40.353Z,937.69
2018-11-22T08:24:41.524Z,937.74
2018-11-22T08:25:42.506Z,937.71
2018-11-22T08:26:42.863Z,937.74
2018-11-22T08:27:43.662Z,937.74
2018-11-22T08:28:44.741Z,937.76
2018-11-22T08:29:45.541Z,937.79
2018-11-22T08:30:46.790Z,937.73
2018-11-22T08:31:47.426Z,937.78
2018-11-22T08:32:52.567Z,937.82
2018-11-22T08:32:59.898Z,937.79
2018-11-22T08:34:01.040Z,937.82
2018-11-22T08:35:02.122Z,937.84
2018-11-22T08:36:02.479Z,937.81
2018-11-22T08:37:03.291Z,937.81
2018-11-22T08:38:04.365Z,937.84
2018-11-22T08:39:05.443Z,937.84
2018-11-22T08:40:06.246Z,937.81
2018-11-22T08:41:07.053Z,937.77
2018-11-22T08:42:08.132Z,937.83
2018-11-22T08:43:08.662Z,937.85
2018-11-22T08:44:09.621Z,937.82
2018-11-22T08:45:10.531Z,937.8
2018-11-22T08:46:11.888Z,937.82
2018-11-22T08:47:12.972Z,937.85
2018-11-22T08:48:13.328Z,937.86
2018-11-22T08:49:14.131Z,937.91
2018-11-22T08:50:14.490Z,937.95
2018-11-22T08:51:15.580Z,937.95
2018-11-22T08:52:16.659Z,937.94
2018-11-22T08:53:17.737Z,937.95
2018-11-22T08:54:18.893Z,937.94
2018-11-22T08:55:20.413Z,937.9
2018-11-22T08:56:20.976Z,937.9
2018-11-22T08:57:21.332Z,937.94
2018-11-22T08:58:21.983Z,937.95
2018-11-22T08:59:23.279Z,937.98
2018-11-22T09:00:23.580Z,937.92
2018-11-22T09:01:23.938Z,937.96
2018-11-22T09:02:25.016Z,937.98
2018-11-22T09:03:25.823Z,938.01
2018-11-22T09:05:27.871Z,938.01
2018-11-22T09:06:28.785Z,938.03
2018-11-22T09:07:29.263Z,938.01
2018-11-22T09:08:30.011Z,938.05
2018-11-22T09:09:31.199Z,938.04
2018-11-22T09:10:32.680Z,938
2018-11-22T09:11:33.920Z,938.03
2018-11-22T09:12:34.590Z,938.04
2018-11-22T09:13:35.804Z,938.04
2018-11-22T09:14:36.809Z,938.03
2018-11-22T09:15:38.171Z,938.04
2018-11-22T09:16:39.085Z,938.03
2018-11-22T09:17:39.830Z,938.03
2018-11-22T09:18:40.576Z,938.04
2018-11-22T09:19:41.602Z,938.08
2018-11-22T09:20:42.801Z,938.1
2018-11-22T09:21:44.270Z,938.17
2018-11-22T09:22:45.541Z,938.1
2018-11-22T09:23:46.893Z,938.1
2018-11-22T09:24:47.610Z,938.12
2018-11-22T09:25:48.380Z,938.1
2018-11-22T09:26:49.293Z,938.14
2018-11-22T09:27:50.822Z,938.16
2018-11-22T09:28:51.291Z,938.15
2018-11-22T09:29:52.593Z,938.16
2018-11-22T09:30:53.323Z,938.19
2018-11-22T09:31:54.412Z,938.17
2018-11-22T09:32:55.883Z,938.2
2018-11-22T09:33:57.078Z,938.2
2018-11-22T09:34:58.624Z,938.23
2018-11-22T09:35:59.651Z,938.26
2018-11-22T09:37:01.178Z,938.27
2018-11-22T09:38:02.096Z,938.28
2018-11-22T09:39:03.008Z,938.31
2018-11-22T09:40:03.755Z,938.28
2018-11-22T09:41:05.385Z,938.25
2018-11-22T09:42:05.854Z,938.29
2018-11-22T09:43:06.472Z,938.2
2018-11-22T09:44:07.206Z,938.24
2018-11-22T09:45:08.462Z,938.2
2018-11-22T09:46:09.005Z,938.22
2018-11-22T09:47:09.769Z,938.21
2018-11-22T09:48:10.253Z,938.21
2018-11-22T09:49:11.010Z,938.23
2018-11-22T09:50:11.720Z,938.23
2018-11-22T09:51:12.112Z,938.2
2018-11-22T09:52:13.073Z,938.2
2018-11-22T09:53:14.500Z,938.21
2018-11-22T09:54:15.207Z,938.23
2018-11-22T09:55:16.243Z,938.18
2018-11-22T09:56:17.055Z,938.19
2018-11-22T09:57:17.880Z,938.18
2018-11-22T09:58:18.607Z,938.24
2018-11-22T09:59:19.836Z,938.25
2018-11-22T10:00:20.993Z,938.22
2018-11-22T10:01:22.361Z,938.27
2018-11-22T10:02:23.285Z,938.31
2018-11-22T10:03:24.482Z,938.33
2018-11-22T10:04:25.233Z,938.35
2018-11-22T10:05:27.346Z,938.33
2018-11-22T10:06:28.217Z,938.34
2018-11-22T10:07:28.887Z,938.35
2018-11-22T10:08:30.175Z,938.29
2018-11-22T10:09:30.807Z,938.28
2018-11-22T10:10:31.727Z,938.23
2018-11-22T10:11:32.922Z,938.19
2018-11-22T10:12:34.681Z,938.15
2018-11-22T10:13:34.952Z,938.14
2018-11-22T10:14:36.425Z,938.14
2018-11-22T10:15:37.548Z,938.19
2018-11-22T10:16:38.309Z,938.19
2018-11-22T10:17:38.949Z,938.24
2018-11-22T10:18:39.871Z,938.21
2018-11-22T10:19:40.428Z,938.19
2018-11-22T10:20:41.624Z,938.22
2018-11-22T10:21:43.002Z,938.23
2018-11-22T10:22:44.262Z,938.29
2018-11-22T10:23:45.290Z,938.31
2018-11-22T10:24:46.200Z,938.29
2018-11-22T10:25:46.918Z,938.29
2018-11-22T10:26:47.671Z,938.26
2018-11-22T10:27:48.312Z,938.28
2018-11-22T10:28:49.514Z,938.28
2018-11-22T10:29:50.312Z,938.26
2018-11-22T10:30:51.545Z,938.31
2018-11-22T10:31:52.531Z,938.3
2018-11-22T10:32:53.742Z,938.28
2018-11-22T10:33:54.306Z,938.26
2018-11-22T10:34:55.554Z,938.27
2018-11-22T10:35:56.456Z,938.3
2018-11-22T10:36:57.989Z,938.3
2018-11-22T10:37:59.490Z,938.31
2018-11-22T10:39:00.825Z,938.27
2018-11-22T10:40:02.118Z,938.31
2018-11-22T10:41:02.445Z,938.26
2018-11-22T10:42:03.692Z,938.27
2018-11-22T10:44:05.728Z,938.27
2018-11-22T10:45:06.340Z,938.34
2018-11-22T10:46:07.323Z,938.26
2018-11-22T10:47:08.803Z,938.26
2018-11-22T10:48:09.789Z,938.31
2018-11-22T10:49:10.276Z,938.33
2018-11-22T10:50:11.480Z,938.34
2018-11-22T10:51:12.675Z,938.35
2018-11-22T10:52:13.594Z,938.28
2018-11-22T10:53:15.005Z,938.27
2018-11-22T10:54:16.208Z,938.26
2018-11-22T10:55:17.439Z,938.25
2018-11-22T10:56:18.589Z,938.24
2018-11-22T10:57:19.631Z,938.19
2018-11-22T10:58:20.840Z,938.19
2018-11-22T10:59:22.076Z,938.16
2018-11-22T11:00:23.557Z,938.15
2018-11-22T11:01:24.047Z,938.13
2018-11-22T11:02:25.006Z,938.11
2018-11-22T11:03:26.295Z,938.12
2018-11-22T11:04:27.232Z,938.16
2018-11-22T11:05:28.074Z,938.13
2018-11-22T11:06:29.231Z,938.16
2018-11-22T11:07:30.180Z,938.15
2018-11-22T11:08:30.822Z,938.16
2018-11-22T11:09:32.300Z,938.17
2018-11-22T11:10:33.409Z,938.18
2018-11-22T11:11:34.837Z,938.14
2018-11-22T11:12:37.049Z,938.19
2018-11-22T11:12:47.576Z,938.2
2018-11-22T11:13:49.057Z,938.18
2018-11-22T11:14:00.960Z,938.22
2018-11-22T11:15:03.516Z,938.2
2018-11-22T11:15:14.464Z,938.18
2018-11-22T11:15:26.596Z,938.16
2018-11-22T11:15:38.896Z,938.18
2018-11-22T11:16:39.552Z,938.18
2018-11-22T11:17:40.758Z,938.17
2018-11-22T11:18:41.608Z,938.15
2018-11-22T11:19:42.816Z,938.21
2018-11-22T11:20:43.414Z,938.18
2018-11-22T11:21:44.370Z,938.22
2018-11-22T11:22:45.675Z,938.2
2018-11-22T11:23:46.166Z,938.23
2018-11-22T11:24:46.964Z,938.18
2018-11-22T11:25:47.959Z,938.17
2018-11-22T11:26:48.703Z,938.17
2018-11-22T11:27:50.095Z,938.11
2018-11-22T11:28:51.072Z,938.17
2018-11-22T11:29:51.826Z,938.13
2018-11-22T11:30:52.189Z,938.14
2018-11-22T11:31:53.390Z,938.13
2018-11-22T11:32:54.115Z,938.14
2018-11-22T11:33:54.673Z,938.13
2018-11-22T11:34:55.022Z,938.15
2018-11-22T11:35:55.943Z,938.15
2018-11-22T11:36:56.618Z,938.15
2018-11-22T11:37:56.981Z,938.13
2018-11-22T11:38:57.902Z,938.15
2018-11-22T11:40:01.979Z,938.14
2018-11-22T11:40:11.272Z,938.13
2018-11-22T11:40:23.525Z,938.09
2018-11-22T11:40:35.324Z,938.09
2018-11-22T11:40:47.517Z,938.1
2018-11-22T11:41:00.133Z,938.09
2018-11-22T11:41:12.479Z,938.09
2018-11-22T11:41:24.434Z,938.06
2018-11-22T11:41:36.997Z,938.09
2018-11-22T11:41:49.551Z,938.11
2018-11-22T11:42:01.229Z,938.1
2018-11-22T11:42:13.133Z,938.11
2018-11-22T11:42:24.946Z,938.1
2018-11-22T11:42:36.554Z,938.1
2018-11-22T11:42:48.698Z,938.1
2018-11-22T11:43:04.892Z,938.12
2018-11-22T11:43:16.781Z,938.08
2018-11-22T11:44:17.919Z,938.1
2018-11-22T11:45:19.120Z,938.06
2018-11-22T11:46:20.327Z,938.09
2018-11-22T11:47:21.328Z,938.11
2018-11-22T11:48:22.295Z,938.03
2018-11-22T11:49:23.251Z,938.05
2018-11-22T11:50:23.896Z,938.06
2018-11-22T11:51:24.690Z,938.06
2018-11-22T11:52:25.300Z,938.05
2018-11-22T11:53:41.223Z,938.04
2018-11-22T11:54:38.795Z,938.01
2018-11-22T11:55:39.461Z,938.01
2018-11-22T11:56:40.242Z,938.03
2018-11-22T11:57:41.167Z,938
2018-11-22T11:58:42.200Z,938.02
2018-11-22T11:59:43.400Z,938.04
2018-11-22T12:00:44.879Z,937.99
2018-11-22T12:01:45.532Z,938.02
2018-11-22T12:02:47.011Z,937.99
2018-11-22T12:03:47.661Z,937.98
2018-11-22T12:04:48.930Z,937.94
2018-11-22T12:05:49.857Z,937.97
2018-11-22T12:06:50.647Z,937.98
2018-11-22T12:07:52.999Z,937.99
2018-11-22T12:08:54.042Z,937.98
2018-11-22T12:09:56.956Z,937.94
2018-11-22T12:10:08.108Z,937.94
2018-11-22T12:11:09.295Z,937.96
2018-11-22T12:12:10.335Z,937.91
2018-11-22T12:13:10.986Z,937.93
2018-11-22T12:14:12.473Z,937.88
2018-11-22T12:15:13.386Z,937.87
2018-11-22T12:16:14.820Z,937.87
2018-11-22T12:17:16.383Z,937.85
2018-11-22T12:18:16.993Z,937.81
2018-11-22T12:19:18.128Z,937.81
2018-11-22T12:20:19.771Z,937.78
2018-11-22T12:21:21.180Z,937.82
2018-11-22T12:22:23.497Z,937.77
2018-11-22T12:22:34.227Z,937.78
2018-11-22T12:23:36.052Z,937.81
2018-11-22T12:24:35.871Z,937.77
2018-11-22T12:25:36.861Z,937.75
2018-11-22T12:26:37.232Z,937.81
2018-11-22T12:27:38.522Z,937.81
2018-11-22T12:28:39.824Z,937.83
2018-11-22T12:29:41.025Z,937.88
2018-11-22T12:30:41.681Z,937.85
2018-11-22T12:31:42.451Z,937.8
2018-11-22T12:32:43.188Z,937.81
2018-11-22T12:33:43.845Z,937.78
2018-11-22T12:34:45.334Z,937.82
2018-11-22T12:35:46.820Z,937.77
2018-11-22T12:36:48.086Z,937.79
2018-11-22T12:37:49.556Z,937.75
2018-11-22T12:38:51.300Z,937.77
2018-11-22T12:39:52.488Z,937.79
2018-11-22T12:40:53.687Z,937.83
2018-11-22T12:41:54.168Z,937.84
2018-11-22T12:42:55.595Z,937.77
2018-11-22T12:43:08.179Z,937.8
2018-11-22T12:44:08.826Z,937.8
2018-11-22T12:45:10.183Z,937.77
2018-11-22T12:46:11.387Z,937.81
2018-11-22T12:47:11.948Z,937.76
2018-11-22T12:48:12.931Z,937.8
2018-11-22T12:49:13.582Z,937.75
2018-11-22T12:50:14.552Z,937.75
2018-11-22T12:51:15.489Z,937.76
2018-11-22T12:52:16.293Z,937.71
2018-11-22T12:53:17.847Z,937.69
2018-11-22T12:54:19.295Z,937.63
2018-11-22T12:55:20.820Z,937.68
2018-11-22T12:56:21.756Z,937.68
2018-11-22T12:57:23.241Z,937.74
2018-11-22T12:58:24.219Z,937.64
2018-11-22T12:59:25.209Z,937.65
2018-11-22T13:00:26.745Z,937.63
2018-11-22T13:01:27.471Z,937.63
2018-11-22T13:02:28.559Z,937.67
2018-11-22T13:03:29.564Z,937.66
2018-11-22T13:04:30.931Z,937.69
2018-11-22T13:05:31.536Z,937.7
2018-11-22T13:06:33.092Z,937.71
2018-11-22T13:07:34.285Z,937.71
2018-11-22T13:08:34.645Z,937.69
2018-11-22T13:09:36.132Z,937.7
2018-11-22T13:10:37.059Z,937.67
2018-11-22T13:11:37.989Z,937.69
2018-11-22T13:11:48.940Z,937.7
2018-11-22T13:12:49.738Z,937.66
2018-11-22T13:13:50.395Z,937.65
2018-11-22T13:14:51.178Z,937.69
2018-11-22T13:15:51.876Z,937.68
2018-11-22T13:16:52.546Z,937.68
2018-11-22T13:17:53.973Z,937.67
2018-11-22T13:18:59.877Z,937.68
2018-11-22T13:19:07.131Z,937.68
2018-11-22T13:20:07.581Z,937.66
2018-11-22T13:21:08.601Z,937.7
2018-11-22T13:22:09.365Z,937.72
2018-11-22T13:23:10.291Z,937.71
2018-11-22T13:24:11.763Z,937.73
2018-11-22T13:25:12.534Z,937.77
2018-11-22T13:26:12.955Z,937.74
2018-11-22T13:27:14.149Z,937.78
2018-11-22T13:28:14.902Z,937.72
2018-11-22T13:29:16.104Z,937.73
2018-11-22T13:30:17.633Z,937.77
2018-11-22T13:31:19.119Z,937.74
2018-11-22T13:32:22.111Z,937.74
2018-11-22T13:33:23.431Z,937.79
2018-11-22T13:34:24.632Z,937.75
2018-11-22T13:35:25.106Z,937.77
2018-11-22T13:36:25.862Z,937.78
2018-11-22T13:37:27.338Z,937.81
2018-11-22T13:38:28.371Z,937.83
2018-11-22T13:39:29.576Z,937.82
2018-11-22T13:40:31.125Z,937.84
2018-11-22T13:41:31.776Z,937.87
2018-11-22T13:42:32.423Z,937.84
2018-11-22T13:43:33.617Z,937.84
2018-11-22T13:44:34.846Z,937.89
2018-11-22T13:45:35.770Z,937.87
2018-11-22T13:46:37.926Z,937.85
2018-11-22T13:46:49.067Z,937.85
2018-11-22T13:47:50.448Z,937.82
2018-11-22T13:48:51.817Z,937.85
2018-11-22T13:49:53.936Z,937.84
2018-11-22T13:50:05.073Z,937.86
2018-11-22T13:51:05.014Z,937.82
2018-11-22T13:52:06.353Z,937.83
2018-11-22T13:53:07.054Z,937.84
2018-11-22T13:54:08.452Z,937.84
2018-11-22T13:55:08.809Z,937.84
2018-11-22T13:56:09.599Z,937.85
2018-11-22T13:57:10.539Z,937.84
2018-11-22T13:58:11.672Z,937.81
2018-11-22T13:59:12.594Z,937.81
2018-11-22T14:00:13.799Z,937.83
2018-11-22T14:01:15.017Z,937.79
2018-11-22T14:02:16.090Z,937.77
2018-11-22T14:02:27.641Z,937.76
2018-11-22T14:03:28.239Z,937.8
2018-11-22T14:04:29.718Z,937.79
2018-11-22T14:05:31.063Z,937.87
2018-11-22T14:06:32.260Z,937.82
2018-11-22T14:07:33.183Z,937.8
2018-11-22T14:08:34.104Z,937.83
2018-11-22T14:09:35.006Z,937.75
2018-11-22T14:10:36.087Z,937.72
2018-11-22T14:11:37.287Z,937.73
2018-11-22T14:12:38.263Z,937.75
2018-11-22T14:13:39.307Z,937.78
2018-11-22T14:14:40.803Z,937.79
2018-11-22T14:15:41.446Z,937.77
2018-11-22T14:16:42.366Z,937.79
2018-11-22T14:17:43.834Z,937.77
2018-11-22T14:18:44.309Z,937.78
2018-11-22T14:19:44.948Z,937.77
2018-11-22T14:20:45.312Z,937.76
2018-11-22T14:21:45.783Z,937.75
2018-11-22T14:22:46.744Z,937.77
2018-11-22T14:23:48.299Z,937.74
2018-11-22T14:24:48.961Z,937.77
2018-11-22T14:25:50.475Z,937.77
2018-11-22T14:26:51.953Z,937.79
2018-11-22T14:27:52.939Z,937.75
2018-11-22T14:28:53.734Z,937.74
2018-11-22T14:29:54.418Z,937.74
2018-11-22T14:30:55.176Z,937.77
2018-11-22T14:31:55.747Z,937.78
2018-11-22T14:32:57.036Z,937.79
2018-11-22T14:33:58.560Z,937.78
2018-11-22T14:35:01.244Z,937.76
2018-11-22T14:36:02.444Z,937.77
2018-11-22T14:37:03.809Z,937.79
2018-11-22T14:38:04.814Z,937.76
2018-11-22T14:39:05.374Z,937.79
2018-11-22T14:40:06.626Z,937.81
2018-11-22T14:41:07.544Z,937.84
2018-11-22T14:42:08.493Z,937.83
2018-11-22T14:43:09.224Z,937.8
2018-11-22T14:44:09.686Z,937.79
2018-11-22T14:45:10.601Z,937.8
2018-11-22T14:46:11.811Z,937.77
2018-11-22T14:47:12.734Z,937.79
2018-11-22T14:48:14.245Z,937.76
2018-11-22T14:49:14.523Z,937.81
2018-11-22T14:50:15.715Z,937.79
2018-11-22T14:51:16.460Z,937.82
2018-11-22T14:52:17.653Z,937.8
2018-11-22T14:53:18.682Z,937.83
2018-11-22T14:54:19.483Z,937.79
2018-11-22T14:55:20.450Z,937.83
2018-11-22T14:56:20.860Z,937.81
2018-11-22T14:57:22.376Z,937.84
2018-11-22T14:58:23.016Z,937.81
2018-11-22T14:59:23.659Z,937.83
2018-11-22T15:00:24.302Z,937.8
2018-11-22T15:01:25.331Z,937.82
2018-11-22T15:02:26.078Z,937.81
2018-11-22T15:03:27.713Z,937.81
2018-11-22T15:04:28.938Z,937.83
2018-11-22T15:05:30.433Z,937.84
2018-11-22T15:06:31.834Z,937.81
2018-11-22T15:07:32.585Z,937.84
2018-11-22T15:08:33.066Z,937.84
2018-11-22T15:09:33.852Z,937.85
2018-11-22T15:10:34.768Z,937.83
2018-11-22T15:11:35.968Z,937.88
2018-11-22T15:12:36.605Z,937.85
2018-11-22T15:13:37.926Z,937.87
2018-11-22T15:13:48.930Z,937.83
2018-11-22T15:14:50.183Z,937.84
2018-11-22T15:15:51.068Z,937.86
2018-11-22T15:16:52.288Z,937.82
2018-11-22T15:17:53.252Z,937.84
2018-11-22T15:18:54.641Z,937.84
2018-11-22T15:19:57.241Z,937.89
2018-11-22T15:20:09.076Z,937.87
2018-11-22T15:20:22.143Z,937.84
2018-11-22T15:20:33.482Z,937.87
2018-11-22T15:20:45.529Z,937.89
2018-11-22T15:21:00.996Z,937.87
2018-11-22T15:21:10.441Z,937.86
2018-11-22T15:22:09.421Z,937.89
2018-11-22T15:23:10.787Z,937.86
2018-11-22T15:24:11.422Z,937.85
2018-11-22T15:25:12.382Z,937.88
2018-11-22T15:26:13.751Z,937.86
2018-11-22T15:27:15.221Z,937.85
2018-11-22T15:28:16.697Z,937.83
2018-11-22T15:29:17.899Z,937.83
2018-11-22T15:30:19.361Z,937.86
2018-11-22T15:31:20.549Z,937.88
2018-11-22T15:32:22.072Z,937.86
2018-11-22T15:33:23.299Z,937.86
2018-11-22T15:34:24.488Z,937.83
2018-11-22T15:35:25.954Z,937.79
2018-11-22T15:36:27.426Z,937.84
2018-11-22T15:37:28.657Z,937.78
2018-11-22T15:38:29.256Z,937.82
2018-11-22T15:39:30.728Z,937.88
2018-11-22T15:40:32.576Z,937.89
2018-11-22T15:41:33.826Z,937.91
2018-11-22T15:42:34.649Z,937.89
2018-11-22T15:43:35.845Z,937.93
2018-11-22T15:44:38.625Z,937.97
2018-11-22T15:45:37.675Z,937.99
2018-11-22T15:46:38.861Z,938.02
2018-11-22T15:47:39.362Z,938.02
2018-11-22T15:48:40.830Z,938.03
2018-11-22T15:49:42.021Z,938.08
2018-11-22T15:50:43.487Z,938.05
2018-11-22T15:51:45.300Z,938.06
2018-11-22T15:52:45.661Z,938.07
2018-11-22T15:53:46.706Z,938.11
2018-11-22T15:54:47.419Z,938.06
2018-11-22T15:55:48.271Z,938.08
2018-11-22T15:56:49.045Z,938.07
2018-11-22T15:57:50.510Z,938.07
2018-11-22T15:58:51.918Z,938.08
2018-11-22T15:59:53.444Z,938.14
2018-11-22T16:00:05.262Z,938.15
2018-11-22T16:01:06.374Z,938.15
2018-11-22T16:02:06.674Z,938.14
2018-11-22T16:03:08.226Z,938.15
2018-11-22T16:04:09.476Z,938.12
2018-11-22T16:05:10.112Z,938.14
2018-11-22T16:06:11.315Z,938.15
2018-11-22T16:07:11.974Z,938.18
2018-11-22T16:08:13.441Z,938.21
2018-11-22T16:09:14.772Z,938.18
2018-11-22T16:10:16.646Z,938.23
2018-11-22T16:10:27.844Z,938.25
2018-11-22T16:11:28.735Z,938.25
2018-11-22T16:12:29.604Z,938.24
2018-11-22T16:13:30.891Z,938.23
2018-11-22T16:14:31.902Z,938.22
2018-11-22T16:15:33.426Z,938.23
2018-11-22T16:16:34.785Z,938.21
2018-11-22T16:17:35.793Z,938.22
2018-11-22T16:18:36.656Z,938.21
2018-11-22T16:19:37.706Z,938.21
2018-11-22T16:20:38.079Z,938.22
2018-11-22T16:21:38.712Z,938.19
2018-11-22T16:22:39.578Z,938.21
2018-11-22T16:23:40.112Z,938.22
2018-11-22T16:24:40.469Z,938.25
2018-11-22T16:25:41.876Z,938.2
2018-11-22T16:26:42.808Z,938.17
2018-11-22T16:27:43.167Z,938.16
2018-11-22T16:28:44.138Z,938.15
2018-11-22T16:29:45.485Z,938.17
2018-11-22T16:30:47.726Z,938.14
2018-11-22T16:31:48.342Z,938.21
2018-11-22T16:32:49.897Z,938.19
2018-11-22T16:33:50.957Z,938.24
2018-11-22T16:34:51.912Z,938.26
2018-11-22T16:35:53.375Z,938.24
2018-11-22T16:36:54.907Z,938.24
2018-11-22T16:37:55.373Z,938.27
2018-11-22T16:38:56.835Z,938.24
2018-11-22T16:39:58.261Z,938.21
2018-11-22T16:40:59.070Z,938.25
2018-11-22T16:42:00.169Z,938.25
2018-11-22T16:43:01.204Z,938.26
2018-11-22T16:44:03.970Z,938.28
2018-11-22T16:45:04.956Z,938.27
2018-11-22T16:46:05.867Z,938.29
2018-11-22T16:47:06.833Z,938.29
2018-11-22T16:48:08.155Z,938.32
2018-11-22T16:48:19.253Z,938.34
2018-11-22T16:49:20.099Z,938.32
2018-11-22T16:50:20.788Z,938.33
2018-11-22T16:51:21.420Z,938.33
2018-11-22T16:52:22.324Z,938.34
2018-11-22T16:53:23.065Z,938.34
2018-11-22T16:54:24.143Z,938.34
2018-11-22T16:55:25.759Z,938.36
2018-11-22T16:55:37.216Z,938.34
2018-11-22T16:55:49.827Z,938.32
2018-11-22T16:56:03.221Z,938.33
2018-11-22T16:57:03.304Z,938.35
2018-11-22T16:58:03.951Z,938.3
2018-11-22T16:59:04.870Z,938.27
2018-11-22T17:00:05.793Z,938.33
2018-11-22T17:01:06.763Z,938.34
2018-11-22T17:02:07.771Z,938.29
2018-11-22T17:03:09.023Z,938.34
2018-11-22T17:04:10.339Z,938.36
2018-11-22T17:05:10.815Z,938.32
2018-11-22T17:06:12.004Z,938.31
2018-11-22T17:07:12.561Z,938.31
2018-11-22T17:08:13.471Z,938.32
2018-11-22T17:09:14.935Z,938.33
2018-11-22T17:10:15.571Z,938.36
2018-11-22T17:11:16.557Z,938.37
2018-11-22T17:12:17.648Z,938.35
2018-11-22T17:13:18.822Z,938.35
2018-11-22T17:14:19.432Z,938.36
2018-11-22T17:15:20.585Z,938.37
2018-11-22T17:16:21.423Z,938.38
2018-11-22T17:17:22.524Z,938.38
2018-11-22T17:18:23.468Z,938.38
2018-11-22T17:19:23.863Z,938.37
2018-11-22T17:20:25.008Z,938.39
2018-11-22T17:21:25.824Z,938.4
2018-11-22T17:22:29.205Z,938.4
2018-11-22T17:23:30.694Z,938.39
2018-11-22T17:24:31.652Z,938.43
2018-11-22T17:25:32.553Z,938.42
2018-11-22T17:26:33.435Z,938.43
2018-11-22T17:27:34.338Z,938.42
2018-11-22T17:28:34.938Z,938.44
2018-11-22T17:29:35.606Z,938.47
2018-11-22T17:29:47.503Z,938.43
2018-11-22T17:30:51.350Z,938.46
2018-11-22T17:31:00.670Z,938.42
2018-11-22T17:32:01.098Z,938.45
2018-11-22T17:33:02.430Z,938.43
2018-11-22T17:34:04.103Z,938.39
2018-11-22T17:35:04.939Z,938.4
2018-11-22T17:36:05.766Z,938.43
2018-11-22T17:37:06.865Z,938.46
2018-11-22T17:38:08.013Z,938.42
2018-11-22T17:39:09.107Z,938.39
2018-11-22T17:40:10.710Z,938.42
2018-11-22T17:41:12.504Z,938.38
2018-11-22T17:42:13.426Z,938.39
2018-11-22T17:43:14.934Z,938.39
2018-11-22T17:44:15.572Z,938.38
2018-11-22T17:45:16.477Z,938.37
2018-11-22T17:46:17.504Z,938.39
2018-11-22T17:47:19.038Z,938.38
2018-11-22T17:48:20.567Z,938.4